sensor_id;sensor_type;location;lat;lon;timestamp;temperature;humidity
64484;DHT22;50862;51.642;7.964;2022-09-09T00:01:05;16.50;99.90
64484;DHT22;50862;51.642;7.964;2022-09-09T00:03:40;16.50;99.90
64484;DHT22;50862;51.642;7.964;2022-09-09T00:06:20;16.60;99.90
64484;DHT22;50862;51.642;7.964;2022-09-09T00:08:57;16.70;99.90
64484;DHT22;50862;51.642;7.964;2022-09-09T00:11:36;16.70;99.90
64484;DHT22;50862;51.642;7.964;2022-09-09T00:14:13;16.60;99.90
64484;DHT22;50862;51.642;7.964;2022-09-09T00:16:50;17.00;99.90
64484;DHT22;50862;51.642;7.964;2022-09-09T00:19:26;16.30;99.90
64484;DHT22;50862;51.642;7.964;2022-09-09T00:22:08;16.60;99.90
64484;DHT22;50862;51.642;7.964;2022-09-09T00:24:44;16.60;99.90
64484;DHT22;50862;51.642;7.964;2022-09-09T00:27:19;16.90;99.90
64484;DHT22;50862;51.642;7.964;2022-09-09T00:29:53;16.60;99.90
64484;DHT22;50862;51.642;7.964;2022-09-09T00:32:28;16.80;99.90
64484;DHT22;50862;51.642;7.964;2022-09-09T00:35:02;16.50;99.90
64484;DHT22;50862;51.642;7.964;2022-09-09T00:37:31;16.50;99.90
64484;DHT22;50862;51.642;7.964;2022-09-09T00:40:07;16.60;99.90
64484;DHT22;50862;51.642;7.964;2022-09-09T00:42:42;17.10;99.90
64484;DHT22;50862;51.642;7.964;2022-09-09T00:45:41;16.50;99.90
64484;DHT22;50862;51.642;7.964;2022-09-09T00:48:14;16.40;99.90
64484;DHT22;50862;51.642;7.964;2022-09-09T00:50:48;16.00;99.90
64484;DHT22;50862;51.642;7.964;2022-09-09T00:53:29;16.80;99.90
64484;DHT22;50862;51.642;7.964;2022-09-09T00:56:08;16.00;99.90
64484;DHT22;50862;51.642;7.964;2022-09-09T01:01:08;15.60;99.90
64484;DHT22;50862;51.642;7.964;2022-09-09T01:03:45;15.90;99.90
64484;DHT22;50862;51.642;7.964;2022-09-09T01:06:16;15.80;99.90
64484;DHT22;50862;51.642;7.964;2022-09-09T01:09:02;15.70;99.90
64484;DHT22;50862;51.642;7.964;2022-09-09T01:11:37;15.80;99.90
64484;DHT22;50862;51.642;7.964;2022-09-09T01:14:14;15.90;99.90
64484;DHT22;50862;51.642;7.964;2022-09-09T01:16:45;15.80;99.90
64484;DHT22;50862;51.642;7.964;2022-09-09T01:19:26;15.60;99.90
64484;DHT22;50862;51.642;7.964;2022-09-09T01:22:03;15.80;99.90
64484;DHT22;50862;51.642;7.964;2022-09-09T01:24:40;15.50;99.90
64484;DHT22;50862;51.642;7.964;2022-09-09T01:27:12;15.40;99.90
64484;DHT22;50862;51.642;7.964;2022-09-09T01:32:37;15.20;99.90
64484;DHT22;50862;51.642;7.964;2022-09-09T01:35:09;15.40;99.90
64484;DHT22;50862;51.642;7.964;2022-09-09T01:37:39;15.60;99.90
64484;DHT22;50862;51.642;7.964;2022-09-09T01:40:08;14.90;99.90
64484;DHT22;50862;51.642;7.964;2022-09-09T01:42:38;14.50;99.90
64484;DHT22;50862;51.642;7.964;2022-09-09T01:45:07;14.90;99.90
64484;DHT22;50862;51.642;7.964;2022-09-09T01:47:35;14.90;99.90
64484;DHT22;50862;51.642;7.964;2022-09-09T01:50:04;15.50;99.90
64484;DHT22;50862;51.642;7.964;2022-09-09T01:52:36;15.50;99.90
64484;DHT22;50862;51.642;7.964;2022-09-09T01:55:05;14.90;99.90
64484;DHT22;50862;51.642;7.964;2022-09-09T01:57:38;14.90;99.90
64484;DHT22;50862;51.642;7.964;2022-09-09T02:00:09;14.40;99.90
64484;DHT22;50862;51.642;7.964;2022-09-09T02:02:44;14.80;99.90
64484;DHT22;50862;51.642;7.964;2022-09-09T02:05:21;14.70;99.90
64484;DHT22;50862;51.642;7.964;2022-09-09T02:07:58;14.70;99.90
64484;DHT22;50862;51.642;7.964;2022-09-09T02:10:31;14.60;99.90
64484;DHT22;50862;51.642;7.964;2022-09-09T02:13:07;14.60;99.90
64484;DHT22;50862;51.642;7.964;2022-09-09T02:15:41;14.70;99.90
64484;DHT22;50862;51.642;7.964;2022-09-09T02:18:12;14.70;99.90
64484;DHT22;50862;51.642;7.964;2022-09-09T02:20:43;14.40;99.90
64484;DHT22;50862;51.642;7.964;2022-09-09T02:23:13;14.70;99.90
64484;DHT22;50862;51.642;7.964;2022-09-09T02:25:43;14.00;99.90
64484;DHT22;50862;51.642;7.964;2022-09-09T02:28:15;14.40;99.90
64484;DHT22;50862;51.642;7.964;2022-09-09T02:30:46;14.50;99.90
64484;DHT22;50862;51.642;7.964;2022-09-09T02:33:15;14.80;99.90
64484;DHT22;50862;51.642;7.964;2022-09-09T02:35:44;14.10;99.90
64484;DHT22;50862;51.642;7.964;2022-09-09T02:38:14;14.70;99.90
64484;DHT22;50862;51.642;7.964;2022-09-09T02:40:43;14.50;99.90
64484;DHT22;50862;51.642;7.964;2022-09-09T02:43:15;15.60;99.90
64484;DHT22;50862;51.642;7.964;2022-09-09T02:45:47;15.50;99.90
64484;DHT22;50862;51.642;7.964;2022-09-09T02:48:26;15.10;99.90
64484;DHT22;50862;51.642;7.964;2022-09-09T02:51:02;15.40;99.90
64484;DHT22;50862;51.642;7.964;2022-09-09T02:53:39;15.20;99.90
64484;DHT22;50862;51.642;7.964;2022-09-09T02:56:15;15.60;99.90
64484;DHT22;50862;51.642;7.964;2022-09-09T02:58:45;15.90;99.90
64484;DHT22;50862;51.642;7.964;2022-09-09T03:01:13;16.00;99.90
64484;DHT22;50862;51.642;7.964;2022-09-09T03:03:41;15.00;99.90
64484;DHT22;50862;51.642;7.964;2022-09-09T03:08:40;15.80;99.90
64484;DHT22;50862;51.642;7.964;2022-09-09T03:13:45;16.20;99.90
64484;DHT22;50862;51.642;7.964;2022-09-09T03:21:12;16.60;99.90
64484;DHT22;50862;51.642;7.964;2022-09-09T03:23:41;15.60;99.90
64484;DHT22;50862;51.642;7.964;2022-09-09T03:31:07;15.70;99.90
64484;DHT22;50862;51.642;7.964;2022-09-09T03:36:05;15.40;99.90
64484;DHT22;50862;51.642;7.964;2022-09-09T03:38:34;15.50;99.90
64484;DHT22;50862;51.642;7.964;2022-09-09T03:41:02;15.70;99.90
64484;DHT22;50862;51.642;7.964;2022-09-09T03:48:33;15.80;99.90
64484;DHT22;50862;51.642;7.964;2022-09-09T03:53:29;16.40;99.90
64484;DHT22;50862;51.642;7.964;2022-09-09T03:58:27;15.40;99.90
64484;DHT22;50862;51.642;7.964;2022-09-09T04:00:57;16.40;99.90
64484;DHT22;50862;51.642;7.964;2022-09-09T04:03:26;16.60;99.90
64484;DHT22;50862;51.642;7.964;2022-09-09T04:05:57;15.70;99.90
64484;DHT22;50862;51.642;7.964;2022-09-09T04:08:26;16.10;99.90
64484;DHT22;50862;51.642;7.964;2022-09-09T04:10:54;15.80;99.90
64484;DHT22;50862;51.642;7.964;2022-09-09T04:13:25;16.10;99.90
64484;DHT22;50862;51.642;7.964;2022-09-09T04:15:54;15.90;99.90
64484;DHT22;50862;51.642;7.964;2022-09-09T04:18:24;15.70;99.90
64484;DHT22;50862;51.642;7.964;2022-09-09T04:20:53;16.40;99.90
64484;DHT22;50862;51.642;7.964;2022-09-09T04:23:23;16.00;99.90
64484;DHT22;50862;51.642;7.964;2022-09-09T04:25:53;16.00;99.90
64484;DHT22;50862;51.642;7.964;2022-09-09T04:28:24;15.70;99.90
64484;DHT22;50862;51.642;7.964;2022-09-09T04:30:52;16.50;99.90
64484;DHT22;50862;51.642;7.964;2022-09-09T04:33:20;16.00;99.90
64484;DHT22;50862;51.642;7.964;2022-09-09T04:35:49;16.20;99.90
64484;DHT22;50862;51.642;7.964;2022-09-09T04:38:20;16.40;99.90
64484;DHT22;50862;51.642;7.964;2022-09-09T04:40:51;16.10;99.90
64484;DHT22;50862;51.642;7.964;2022-09-09T04:43:20;15.90;99.90
64484;DHT22;50862;51.642;7.964;2022-09-09T04:45:50;15.70;99.90
64484;DHT22;50862;51.642;7.964;2022-09-09T04:48:19;16.20;99.90
64484;DHT22;50862;51.642;7.964;2022-09-09T04:50:54;16.20;99.90
64484;DHT22;50862;51.642;7.964;2022-09-09T04:53:23;16.10;99.90
64484;DHT22;50862;51.642;7.964;2022-09-09T04:56:01;16.20;99.90
64484;DHT22;50862;51.642;7.964;2022-09-09T04:58:29;16.50;99.90
64484;DHT22;50862;51.642;7.964;2022-09-09T05:01:04;16.10;99.90
64484;DHT22;50862;51.642;7.964;2022-09-09T05:03:32;16.00;99.90
64484;DHT22;50862;51.642;7.964;2022-09-09T05:06:05;16.20;99.90
64484;DHT22;50862;51.642;7.964;2022-09-09T05:08:35;15.70;99.90
64484;DHT22;50862;51.642;7.964;2022-09-09T05:11:13;16.90;99.90
64484;DHT22;50862;51.642;7.964;2022-09-09T05:13:42;16.20;99.90
64484;DHT22;50862;51.642;7.964;2022-09-09T05:16:10;15.90;99.90
64484;DHT22;50862;51.642;7.964;2022-09-09T05:18:39;15.70;99.90
64484;DHT22;50862;51.642;7.964;2022-09-09T05:21:07;16.00;99.90
64484;DHT22;50862;51.642;7.964;2022-09-09T05:23:36;17.00;99.90
64484;DHT22;50862;51.642;7.964;2022-09-09T05:26:06;16.50;99.90
64484;DHT22;50862;51.642;7.964;2022-09-09T05:28:35;17.20;99.90
64484;DHT22;50862;51.642;7.964;2022-09-09T05:31:05;16.30;99.90
64484;DHT22;50862;51.642;7.964;2022-09-09T05:33:35;17.20;99.90
64484;DHT22;50862;51.642;7.964;2022-09-09T05:36:05;16.30;99.90
64484;DHT22;50862;51.642;7.964;2022-09-09T05:38:35;16.30;99.90
64484;DHT22;50862;51.642;7.964;2022-09-09T05:41:05;16.20;99.90
64484;DHT22;50862;51.642;7.964;2022-09-09T05:43:33;16.60;99.90
64484;DHT22;50862;51.642;7.964;2022-09-09T05:46:04;17.20;99.90
64484;DHT22;50862;51.642;7.964;2022-09-09T05:48:33;16.20;99.90
64484;DHT22;50862;51.642;7.964;2022-09-09T05:51:03;17.00;99.90
64484;DHT22;50862;51.642;7.964;2022-09-09T05:56:02;15.90;99.90
64484;DHT22;50862;51.642;7.964;2022-09-09T05:58:33;16.60;99.90
64484;DHT22;50862;51.642;7.964;2022-09-09T06:01:02;16.70;99.90
64484;DHT22;50862;51.642;7.964;2022-09-09T06:03:31;16.70;99.90
64484;DHT22;50862;51.642;7.964;2022-09-09T06:06:00;16.30;99.90
64484;DHT22;50862;51.642;7.964;2022-09-09T06:08:28;16.40;99.90
64484;DHT22;50862;51.642;7.964;2022-09-09T06:11:02;17.00;99.90
64484;DHT22;50862;51.642;7.964;2022-09-09T06:13:32;16.80;99.90
64484;DHT22;50862;51.642;7.964;2022-09-09T06:16:00;16.60;99.90
64484;DHT22;50862;51.642;7.964;2022-09-09T06:18:28;17.30;99.90
64484;DHT22;50862;51.642;7.964;2022-09-09T06:20:58;16.30;99.90
64484;DHT22;50862;51.642;7.964;2022-09-09T06:23:27;17.00;99.90
64484;DHT22;50862;51.642;7.964;2022-09-09T06:26:06;17.60;99.90
64484;DHT22;50862;51.642;7.964;2022-09-09T06:28:36;17.20;99.90
64484;DHT22;50862;51.642;7.964;2022-09-09T06:31:05;17.30;99.90
64484;DHT22;50862;51.642;7.964;2022-09-09T06:33:35;17.30;99.90
64484;DHT22;50862;51.642;7.964;2022-09-09T06:36:07;17.10;99.90
64484;DHT22;50862;51.642;7.964;2022-09-09T06:38:35;17.00;99.90
64484;DHT22;50862;51.642;7.964;2022-09-09T06:41:04;17.00;99.90
64484;DHT22;50862;51.642;7.964;2022-09-09T06:46:04;16.90;99.90
64484;DHT22;50862;51.642;7.964;2022-09-09T06:51:02;17.00;99.90
64484;DHT22;50862;51.642;7.964;2022-09-09T06:53:31;17.20;99.90
64484;DHT22;50862;51.642;7.964;2022-09-09T06:58:29;17.60;99.90
64484;DHT22;50862;51.642;7.964;2022-09-09T07:01:06;17.40;99.90
64484;DHT22;50862;51.642;7.964;2022-09-09T07:03:34;16.80;99.90
64484;DHT22;50862;51.642;7.964;2022-09-09T07:08:31;18.20;99.90
64484;DHT22;50862;51.642;7.964;2022-09-09T07:11:02;17.70;99.90
64484;DHT22;50862;51.642;7.964;2022-09-09T07:13:38;17.50;99.90
64484;DHT22;50862;51.642;7.964;2022-09-09T07:16:11;18.10;99.90
64484;DHT22;50862;51.642;7.964;2022-09-09T07:18:40;18.40;99.90
64484;DHT22;50862;51.642;7.964;2022-09-09T07:21:09;17.90;99.90
64484;DHT22;50862;51.642;7.964;2022-09-09T07:26:10;17.50;99.90
64484;DHT22;50862;51.642;7.964;2022-09-09T07:28:39;17.70;99.90
64484;DHT22;50862;51.642;7.964;2022-09-09T07:31:13;17.90;99.90
64484;DHT22;50862;51.642;7.964;2022-09-09T07:33:43;17.50;99.90
64484;DHT22;50862;51.642;7.964;2022-09-09T07:36:13;17.90;99.90
64484;DHT22;50862;51.642;7.964;2022-09-09T07:38:43;17.90;99.90
64484;DHT22;50862;51.642;7.964;2022-09-09T07:41:15;17.90;99.90
64484;DHT22;50862;51.642;7.964;2022-09-09T07:43:45;18.60;99.90
64484;DHT22;50862;51.642;7.964;2022-09-09T07:46:17;18.40;99.90
64484;DHT22;50862;51.642;7.964;2022-09-09T07:48:46;19.00;99.90
64484;DHT22;50862;51.642;7.964;2022-09-09T07:51:20;18.50;99.90
64484;DHT22;50862;51.642;7.964;2022-09-09T07:53:52;18.60;99.90
64484;DHT22;50862;51.642;7.964;2022-09-09T07:56:20;18.30;99.90
64484;DHT22;50862;51.642;7.964;2022-09-09T07:58:50;17.70;99.90
64484;DHT22;50862;51.642;7.964;2022-09-09T08:01:22;18.30;99.90
64484;DHT22;50862;51.642;7.964;2022-09-09T08:03:54;17.70;99.90
64484;DHT22;50862;51.642;7.964;2022-09-09T08:06:25;17.60;99.90
64484;DHT22;50862;51.642;7.964;2022-09-09T08:08:54;18.30;99.90
64484;DHT22;50862;51.642;7.964;2022-09-09T08:11:24;18.50;99.90
64484;DHT22;50862;51.642;7.964;2022-09-09T08:13:53;18.20;99.90
64484;DHT22;50862;51.642;7.964;2022-09-09T08:16:30;18.50;99.90
64484;DHT22;50862;51.642;7.964;2022-09-09T08:21:29;18.20;99.90
64484;DHT22;50862;51.642;7.964;2022-09-09T08:24:00;18.60;99.90
64484;DHT22;50862;51.642;7.964;2022-09-09T08:26:30;18.60;99.90
64484;DHT22;50862;51.642;7.964;2022-09-09T08:29:00;18.80;99.90
64484;DHT22;50862;51.642;7.964;2022-09-09T08:31:31;18.70;99.90
64484;DHT22;50862;51.642;7.964;2022-09-09T08:34:01;19.00;99.90
64484;DHT22;50862;51.642;7.964;2022-09-09T08:36:31;18.70;99.90
64484;DHT22;50862;51.642;7.964;2022-09-09T08:39:01;18.70;99.90
64484;DHT22;50862;51.642;7.964;2022-09-09T08:41:52;19.00;99.90
64484;DHT22;50862;51.642;7.964;2022-09-09T08:44:32;18.60;99.90
64484;DHT22;50862;51.642;7.964;2022-09-09T08:47:10;18.60;99.90
64484;DHT22;50862;51.642;7.964;2022-09-09T08:49:59;19.10;99.90
64484;DHT22;50862;51.642;7.964;2022-09-09T08:52:30;19.00;99.90
64484;DHT22;50862;51.642;7.964;2022-09-09T08:55:05;18.70;99.90
64484;DHT22;50862;51.642;7.964;2022-09-09T08:57:39;19.80;99.90
64484;DHT22;50862;51.642;7.964;2022-09-09T09:00:10;18.50;99.90
64484;DHT22;50862;51.642;7.964;2022-09-09T09:02:44;18.70;99.90
64484;DHT22;50862;51.642;7.964;2022-09-09T09:05:20;18.90;99.90
64484;DHT22;50862;51.642;7.964;2022-09-09T09:08:01;18.90;99.90
64484;DHT22;50862;51.642;7.964;2022-09-09T09:10:39;19.10;99.90
64484;DHT22;50862;51.642;7.964;2022-09-09T09:13:14;18.70;99.90
64484;DHT22;50862;51.642;7.964;2022-09-09T09:15:44;19.10;99.90
64484;DHT22;50862;51.642;7.964;2022-09-09T09:18:17;19.10;99.90
64484;DHT22;50862;51.642;7.964;2022-09-09T09:20:50;19.30;99.90
64484;DHT22;50862;51.642;7.964;2022-09-09T09:23:23;20.00;99.90
64484;DHT22;50862;51.642;7.964;2022-09-09T09:25:54;19.90;99.90
64484;DHT22;50862;51.642;7.964;2022-09-09T09:28:26;20.30;99.90
64484;DHT22;50862;51.642;7.964;2022-09-09T09:30:57;20.50;99.90
64484;DHT22;50862;51.642;7.964;2022-09-09T09:33:30;19.90;99.20
64484;DHT22;50862;51.642;7.964;2022-09-09T09:36:00;19.90;99.90
64484;DHT22;50862;51.642;7.964;2022-09-09T09:38:29;20.30;99.90
64484;DHT22;50862;51.642;7.964;2022-09-09T09:41:29;19.70;99.90
64484;DHT22;50862;51.642;7.964;2022-09-09T09:46:26;20.20;99.90
64484;DHT22;50862;51.642;7.964;2022-09-09T09:48:59;19.80;97.80
64484;DHT22;50862;51.642;7.964;2022-09-09T09:51:29;19.50;97.90
64484;DHT22;50862;51.642;7.964;2022-09-09T09:54:09;20.30;99.40
64484;DHT22;50862;51.642;7.964;2022-09-09T09:56:42;20.80;97.60
64484;DHT22;50862;51.642;7.964;2022-09-09T09:59:23;20.70;97.30
64484;DHT22;50862;51.642;7.964;2022-09-09T10:02:14;22.30;96.60
64484;DHT22;50862;51.642;7.964;2022-09-09T10:04:44;21.20;92.90
64484;DHT22;50862;51.642;7.964;2022-09-09T10:07:17;21.20;91.20
64484;DHT22;50862;51.642;7.964;2022-09-09T10:09:48;20.70;91.70
64484;DHT22;50862;51.642;7.964;2022-09-09T10:12:28;21.70;91.90
64484;DHT22;50862;51.642;7.964;2022-09-09T10:15:09;20.90;91.60
64484;DHT22;50862;51.642;7.964;2022-09-09T10:17:56;20.80;91.40
64484;DHT22;50862;51.642;7.964;2022-09-09T10:20:38;21.90;90.00
64484;DHT22;50862;51.642;7.964;2022-09-09T10:23:22;22.20;90.20
64484;DHT22;50862;51.642;7.964;2022-09-09T10:26:16;22.00;86.10
64484;DHT22;50862;51.642;7.964;2022-09-09T10:29:22;22.20;86.30
64484;DHT22;50862;51.642;7.964;2022-09-09T10:32:00;22.40;86.90
64484;DHT22;50862;51.642;7.964;2022-09-09T10:34:48;21.20;84.70
64484;DHT22;50862;51.642;7.964;2022-09-09T10:37:31;20.80;89.50
64484;DHT22;50862;51.642;7.964;2022-09-09T10:40:12;20.50;90.00
64484;DHT22;50862;51.642;7.964;2022-09-09T10:42:43;20.30;90.20
64484;DHT22;50862;51.642;7.964;2022-09-09T10:45:17;20.70;90.20
64484;DHT22;50862;51.642;7.964;2022-09-09T10:47:58;21.40;90.00
64484;DHT22;50862;51.642;7.964;2022-09-09T10:50:52;21.40;89.60
64484;DHT22;50862;51.642;7.964;2022-09-09T10:53:46;21.90;88.30
64484;DHT22;50862;51.642;7.964;2022-09-09T10:56:16;22.30;81.00
64484;DHT22;50862;51.642;7.964;2022-09-09T10:58:50;22.40;85.30
64484;DHT22;50862;51.642;7.964;2022-09-09T11:01:22;22.10;83.90
64484;DHT22;50862;51.642;7.964;2022-09-09T11:03:54;22.60;84.10
64484;DHT22;50862;51.642;7.964;2022-09-09T11:06:30;22.50;80.80
64484;DHT22;50862;51.642;7.964;2022-09-09T11:09:02;22.40;84.20
64484;DHT22;50862;51.642;7.964;2022-09-09T11:11:35;22.30;78.20
64484;DHT22;50862;51.642;7.964;2022-09-09T11:14:10;21.90;79.80
64484;DHT22;50862;51.642;7.964;2022-09-09T11:16:44;22.40;78.70
64484;DHT22;50862;51.642;7.964;2022-09-09T11:19:20;22.20;80.10
64484;DHT22;50862;51.642;7.964;2022-09-09T11:21:52;22.40;79.50
64484;DHT22;50862;51.642;7.964;2022-09-09T11:24:26;22.80;78.70
64484;DHT22;50862;51.642;7.964;2022-09-09T11:26:58;23.40;75.20
64484;DHT22;50862;51.642;7.964;2022-09-09T11:29:52;23.40;74.90
64484;DHT22;50862;51.642;7.964;2022-09-09T11:32:42;22.90;71.30
64484;DHT22;50862;51.642;7.964;2022-09-09T11:35:29;22.80;71.80
64484;DHT22;50862;51.642;7.964;2022-09-09T11:38:22;23.00;69.60
64484;DHT22;50862;51.642;7.964;2022-09-09T11:40:59;23.50;70.60
64484;DHT22;50862;51.642;7.964;2022-09-09T11:43:31;22.20;70.50
64484;DHT22;50862;51.642;7.964;2022-09-09T11:46:02;22.40;70.10
64484;DHT22;50862;51.642;7.964;2022-09-09T11:48:33;21.80;72.00
64484;DHT22;50862;51.642;7.964;2022-09-09T11:51:05;21.20;70.90
64484;DHT22;50862;51.642;7.964;2022-09-09T11:53:47;20.70;71.00
64484;DHT22;50862;51.642;7.964;2022-09-09T11:56:27;21.20;74.60
64484;DHT22;50862;51.642;7.964;2022-09-09T11:58:59;21.60;76.10
64484;DHT22;50862;51.642;7.964;2022-09-09T12:01:33;21.10;79.40
64484;DHT22;50862;51.642;7.964;2022-09-09T12:04:30;20.40;80.30
64484;DHT22;50862;51.642;7.964;2022-09-09T12:07:02;20.70;83.10
64484;DHT22;50862;51.642;7.964;2022-09-09T12:09:45;20.50;82.30
64484;DHT22;50862;51.642;7.964;2022-09-09T12:12:34;20.70;80.10
64484;DHT22;50862;51.642;7.964;2022-09-09T12:15:25;16.80;78.90
64484;DHT22;50862;51.642;7.964;2022-09-09T12:17:57;21.10;83.20
64484;DHT22;50862;51.642;7.964;2022-09-09T12:20:33;21.30;78.40
64484;DHT22;50862;51.642;7.964;2022-09-09T12:23:15;21.70;78.50
64484;DHT22;50862;51.642;7.964;2022-09-09T12:28:52;22.30;73.40
64484;DHT22;50862;51.642;7.964;2022-09-09T12:31:27;22.50;76.20
64484;DHT22;50862;51.642;7.964;2022-09-09T12:34:09;22.30;73.40
64484;DHT22;50862;51.642;7.964;2022-09-09T12:36:39;22.20;74.80
64484;DHT22;50862;51.642;7.964;2022-09-09T12:39:16;22.60;74.20
64484;DHT22;50862;51.642;7.964;2022-09-09T12:41:52;22.60;74.50
64484;DHT22;50862;51.642;7.964;2022-09-09T12:44:26;22.80;72.70
64484;DHT22;50862;51.642;7.964;2022-09-09T12:46:57;22.60;71.80
64484;DHT22;50862;51.642;7.964;2022-09-09T12:49:30;22.20;72.10
64484;DHT22;50862;51.642;7.964;2022-09-09T12:52:03;22.50;72.30
64484;DHT22;50862;51.642;7.964;2022-09-09T12:54:35;22.50;70.00
64484;DHT22;50862;51.642;7.964;2022-09-09T12:57:04;22.40;70.40
64484;DHT22;50862;51.642;7.964;2022-09-09T12:59:37;22.70;71.30
64484;DHT22;50862;51.642;7.964;2022-09-09T13:02:18;22.90;68.30
64484;DHT22;50862;51.642;7.964;2022-09-09T13:04:47;23.20;69.90
64484;DHT22;50862;51.642;7.964;2022-09-09T13:07:17;23.00;69.40
64484;DHT22;50862;51.642;7.964;2022-09-09T13:09:46;23.00;68.70
64484;DHT22;50862;51.642;7.964;2022-09-09T13:12:18;22.30;66.90
64484;DHT22;50862;51.642;7.964;2022-09-09T13:14:50;22.30;66.90
64484;DHT22;50862;51.642;7.964;2022-09-09T13:17:21;22.50;69.00
64484;DHT22;50862;51.642;7.964;2022-09-09T13:19:50;22.10;68.70
64484;DHT22;50862;51.642;7.964;2022-09-09T13:22:28;22.20;70.50
64484;DHT22;50862;51.642;7.964;2022-09-09T13:25:03;22.40;69.60
64484;DHT22;50862;51.642;7.964;2022-09-09T13:27:33;22.20;69.50
64484;DHT22;50862;51.642;7.964;2022-09-09T13:30:22;22.20;69.50
64484;DHT22;50862;51.642;7.964;2022-09-09T13:33:01;22.00;68.90
64484;DHT22;50862;51.642;7.964;2022-09-09T13:35:30;22.30;70.70
64484;DHT22;50862;51.642;7.964;2022-09-09T13:38:06;21.10;72.60
64484;DHT22;50862;51.642;7.964;2022-09-09T13:40:35;22.20;75.90
64484;DHT22;50862;51.642;7.964;2022-09-09T13:43:03;21.80;77.00
64484;DHT22;50862;51.642;7.964;2022-09-09T13:45:33;21.80;81.60
64484;DHT22;50862;51.642;7.964;2022-09-09T13:48:09;21.80;83.20
64484;DHT22;50862;51.642;7.964;2022-09-09T13:50:37;21.60;80.90
64484;DHT22;50862;51.642;7.964;2022-09-09T13:53:07;21.60;82.60
64484;DHT22;50862;51.642;7.964;2022-09-09T13:55:36;22.00;83.30
64484;DHT22;50862;51.642;7.964;2022-09-09T13:58:05;21.70;82.00
64484;DHT22;50862;51.642;7.964;2022-09-09T14:00:35;21.80;80.80
64484;DHT22;50862;51.642;7.964;2022-09-09T14:03:03;21.90;85.70
64484;DHT22;50862;51.642;7.964;2022-09-09T14:05:32;21.90;83.10
64484;DHT22;50862;51.642;7.964;2022-09-09T14:08:01;21.80;83.70
64484;DHT22;50862;51.642;7.964;2022-09-09T14:10:30;21.60;83.70
64484;DHT22;50862;51.642;7.964;2022-09-09T14:12:58;21.50;84.80
64484;DHT22;50862;51.642;7.964;2022-09-09T14:15:27;21.50;84.50
64484;DHT22;50862;51.642;7.964;2022-09-09T14:17:56;21.60;85.30
64484;DHT22;50862;51.642;7.964;2022-09-09T14:20:25;21.50;86.50
64484;DHT22;50862;51.642;7.964;2022-09-09T14:22:53;21.70;85.40
64484;DHT22;50862;51.642;7.964;2022-09-09T14:25:24;21.70;87.80
64484;DHT22;50862;51.642;7.964;2022-09-09T14:27:52;21.70;88.50
64484;DHT22;50862;51.642;7.964;2022-09-09T14:30:20;20.80;83.00
64484;DHT22;50862;51.642;7.964;2022-09-09T14:32:48;21.80;83.90
64484;DHT22;50862;51.642;7.964;2022-09-09T14:35:17;20.90;83.80
64484;DHT22;50862;51.642;7.964;2022-09-09T14:37:45;21.30;82.80
64484;DHT22;50862;51.642;7.964;2022-09-09T14:40:13;20.60;83.10
64484;DHT22;50862;51.642;7.964;2022-09-09T14:42:42;21.40;83.40
64484;DHT22;50862;51.642;7.964;2022-09-09T14:45:11;21.20;83.70
64484;DHT22;50862;51.642;7.964;2022-09-09T14:47:39;21.40;85.60
64484;DHT22;50862;51.642;7.964;2022-09-09T14:50:07;21.50;85.20
64484;DHT22;50862;51.642;7.964;2022-09-09T14:52:37;21.80;85.60
64484;DHT22;50862;51.642;7.964;2022-09-09T14:55:06;22.10;81.80
64484;DHT22;50862;51.642;7.964;2022-09-09T14:57:34;22.30;80.40
64484;DHT22;50862;51.642;7.964;2022-09-09T15:00:03;22.00;82.30
64484;DHT22;50862;51.642;7.964;2022-09-09T15:02:32;21.80;81.90
64484;DHT22;50862;51.642;7.964;2022-09-09T15:05:00;21.60;85.60
64484;DHT22;50862;51.642;7.964;2022-09-09T15:07:28;20.70;85.30
64484;DHT22;50862;51.642;7.964;2022-09-09T15:09:57;21.70;84.70
64484;DHT22;50862;51.642;7.964;2022-09-09T15:12:25;20.40;84.70
64484;DHT22;50862;51.642;7.964;2022-09-09T15:14:55;20.60;86.20
64484;DHT22;50862;51.642;7.964;2022-09-09T15:17:23;20.50;85.10
64484;DHT22;50862;51.642;7.964;2022-09-09T15:19:53;19.80;86.10
64484;DHT22;50862;51.642;7.964;2022-09-09T15:22:22;20.40;88.80
64484;DHT22;50862;51.642;7.964;2022-09-09T15:24:51;20.50;87.60
64484;DHT22;50862;51.642;7.964;2022-09-09T15:27:20;20.40;87.10
64484;DHT22;50862;51.642;7.964;2022-09-09T15:29:50;20.10;89.40
64484;DHT22;50862;51.642;7.964;2022-09-09T15:32:18;19.70;87.90
64484;DHT22;50862;51.642;7.964;2022-09-09T15:34:46;20.30;88.80
64484;DHT22;50862;51.642;7.964;2022-09-09T15:39:43;20.20;89.80
64484;DHT22;50862;51.642;7.964;2022-09-09T15:42:11;20.40;91.10
64484;DHT22;50862;51.642;7.964;2022-09-09T15:44:41;20.40;90.30
64484;DHT22;50862;51.642;7.964;2022-09-09T15:47:11;20.30;89.90
64484;DHT22;50862;51.642;7.964;2022-09-09T15:52:10;19.70;95.00
64484;DHT22;50862;51.642;7.964;2022-09-09T15:54:38;20.00;99.90
64484;DHT22;50862;51.642;7.964;2022-09-09T15:57:09;20.00;99.90
64484;DHT22;50862;51.642;7.964;2022-09-09T15:59:40;18.60;99.90
64484;DHT22;50862;51.642;7.964;2022-09-09T16:02:09;19.00;99.90
64484;DHT22;50862;51.642;7.964;2022-09-09T16:04:37;19.00;99.90
64484;DHT22;50862;51.642;7.964;2022-09-09T16:07:06;18.50;99.90
64484;DHT22;50862;51.642;7.964;2022-09-09T16:09:34;19.00;99.90
64484;DHT22;50862;51.642;7.964;2022-09-09T16:12:04;18.70;99.90
64484;DHT22;50862;51.642;7.964;2022-09-09T16:14:36;18.70;99.90
64484;DHT22;50862;51.642;7.964;2022-09-09T16:17:06;19.40;99.90
64484;DHT22;50862;51.642;7.964;2022-09-09T16:19:34;18.70;99.90
64484;DHT22;50862;51.642;7.964;2022-09-09T16:22:03;18.80;99.90
64484;DHT22;50862;51.642;7.964;2022-09-09T16:24:31;18.60;99.90
64484;DHT22;50862;51.642;7.964;2022-09-09T16:26:59;19.00;99.90
64484;DHT22;50862;51.642;7.964;2022-09-09T16:34:31;18.40;99.90
64484;DHT22;50862;51.642;7.964;2022-09-09T16:37:00;18.30;99.90
64484;DHT22;50862;51.642;7.964;2022-09-09T16:39:28;18.20;99.90
64484;DHT22;50862;51.642;7.964;2022-09-09T16:41:56;17.20;99.90
64484;DHT22;50862;51.642;7.964;2022-09-09T16:44:25;18.10;99.90
64484;DHT22;50862;51.642;7.964;2022-09-09T16:51:58;17.10;99.90
64484;DHT22;50862;51.642;7.964;2022-09-09T17:04:24;16.80;99.90
64484;DHT22;50862;51.642;7.964;2022-09-09T17:06:54;17.30;99.90
64484;DHT22;50862;51.642;7.964;2022-09-09T17:09:25;17.00;99.90
64484;DHT22;50862;51.642;7.964;2022-09-09T17:14:25;16.90;99.90
64484;DHT22;50862;51.642;7.964;2022-09-09T17:24:39;17.10;99.90
64484;DHT22;50862;51.642;7.964;2022-09-09T17:27:07;17.10;99.90
64484;DHT22;50862;51.642;7.964;2022-09-09T17:32:05;17.30;99.90
64484;DHT22;50862;51.642;7.964;2022-09-09T17:34:34;17.00;99.90
64484;DHT22;50862;51.642;7.964;2022-09-09T17:37:02;17.40;99.90